createdAt,value
2022-09-28T00:01:22.415Z,7.30
2022-09-28T00:03:51.566Z,7.57
2022-09-28T00:06:21.612Z,6.88
2022-09-28T00:08:50.323Z,6.95
2022-09-28T00:11:18.971Z,6.68
2022-09-28T00:13:51.825Z,6.22
2022-09-28T00:16:21.845Z,5.85
2022-09-28T00:18:51.423Z,6.05
2022-09-28T00:21:22.489Z,5.75
2022-09-28T00:24:13.168Z,5.82
2022-09-28T00:26:50.702Z,6.60
2022-09-28T00:29:22.852Z,6.80
2022-09-28T00:31:54.266Z,6.25
2022-09-28T00:34:22.029Z,6.32
2022-09-28T00:36:49.245Z,6.32
2022-09-28T00:39:17.654Z,7.43
2022-09-28T00:41:46.508Z,6.93
2022-09-28T00:44:37.085Z,6.43
2022-09-28T00:47:25.602Z,6.45
2022-09-28T00:50:20.264Z,6.60
2022-09-28T00:52:54.390Z,5.05
2022-09-28T00:55:31.834Z,6.80
2022-09-28T00:58:03.311Z,6.82
2022-09-28T01:00:30.482Z,7.15
2022-09-28T01:02:58.748Z,7.30
2022-09-28T01:05:27.660Z,7.10
2022-09-28T01:07:57.738Z,6.60
2022-09-28T01:10:25.279Z,6.88
2022-09-28T01:12:52.451Z,7.80
2022-09-28T01:15:22.003Z,7.05
2022-09-28T01:18:01.025Z,7.28
2022-09-28T01:21:10.508Z,6.43
2022-09-28T01:24:05.048Z,7.80
2022-09-28T01:26:40.892Z,8.95
2022-09-28T01:29:16.556Z,6.30
2022-09-28T01:31:50.320Z,7.07
2022-09-28T01:34:31.065Z,8.03
2022-09-28T01:37:03.193Z,6.10
2022-09-28T01:39:37.049Z,6.00
2022-09-28T01:42:10.639Z,5.53
2022-09-28T01:44:41.853Z,5.75
2022-09-28T01:47:13.210Z,5.65
2022-09-28T01:49:47.340Z,4.43
2022-09-28T01:52:28.149Z,6.03
2022-09-28T01:55:04.251Z,5.85
2022-09-28T01:57:49.213Z,6.75
2022-09-28T02:00:19.613Z,6.38
2022-09-28T02:03:12.685Z,4.40
2022-09-28T02:05:51.239Z,3.70
2022-09-28T02:08:27.153Z,3.70
2022-09-28T02:11:04.973Z,3.28
2022-09-28T02:13:39.342Z,4.00
2022-09-28T02:16:16.703Z,4.43
2022-09-28T02:18:46.347Z,3.70
2022-09-28T02:21:23.333Z,4.25
2022-09-28T02:24:01.596Z,4.03
2022-09-28T02:26:35.021Z,4.35
2022-09-28T02:29:02.296Z,4.20
2022-09-28T02:31:29.547Z,4.20
2022-09-28T02:33:58.236Z,4.63
2022-09-28T02:36:27.659Z,3.60
2022-09-28T02:38:55.421Z,3.72
2022-09-28T02:41:43.605Z,3.97
2022-09-28T02:44:38.911Z,3.45
2022-09-28T02:47:27.382Z,3.88
2022-09-28T02:50:22.065Z,3.65
2022-09-28T02:53:22.487Z,3.70
2022-09-28T02:55:53.774Z,3.35
2022-09-28T02:58:40.942Z,3.90
2022-09-28T03:01:29.341Z,4.13
2022-09-28T03:04:01.188Z,4.63
2022-09-28T03:06:46.225Z,4.07
2022-09-28T03:09:18.871Z,4.50
2022-09-28T03:11:52.116Z,3.90
2022-09-28T03:14:20.409Z,4.80
2022-09-28T03:16:53.042Z,4.20
2022-09-28T03:19:27.940Z,3.97
2022-09-28T03:21:55.741Z,4.22
2022-09-28T03:24:23.126Z,4.00
2022-09-28T03:26:50.613Z,4.30
2022-09-28T03:29:19.483Z,4.15
2022-09-28T03:31:51.959Z,5.53
2022-09-28T03:34:19.352Z,3.92
2022-09-28T03:36:46.708Z,4.78
2022-09-28T03:39:14.454Z,4.90
2022-09-28T03:41:41.798Z,4.22
2022-09-28T03:44:08.966Z,4.35
2022-09-28T03:46:38.268Z,3.92
2022-09-28T03:49:10.012Z,4.15
2022-09-28T03:51:37.255Z,4.07
2022-09-28T03:54:04.831Z,4.53
2022-09-28T03:56:32.200Z,4.65
2022-09-28T03:58:59.563Z,4.80
2022-09-28T04:01:27.450Z,3.95
2022-09-28T04:03:56.046Z,4.32
2022-09-28T04:06:25.337Z,4.75
2022-09-28T04:08:52.868Z,4.85
2022-09-28T04:11:20.138Z,4.10
2022-09-28T04:13:50.081Z,5.80
2022-09-28T04:16:18.704Z,3.95
2022-09-28T04:18:57.674Z,5.40
2022-09-28T04:21:44.816Z,4.32
2022-09-28T04:24:14.599Z,4.45
2022-09-28T04:26:42.027Z,5.40
2022-09-28T04:29:20.644Z,5.25
2022-09-28T04:31:54.036Z,5.47
2022-09-28T04:34:29.805Z,4.65
2022-09-28T04:36:59.266Z,4.88
2022-09-28T04:39:26.394Z,6.05
2022-09-28T04:41:56.300Z,5.22
2022-09-28T04:44:23.680Z,4.90
2022-09-28T04:46:57.702Z,3.78
2022-09-28T04:49:30.604Z,5.00
2022-09-28T04:52:02.813Z,4.68
2022-09-28T04:54:30.086Z,5.72
2022-09-28T04:56:58.969Z,4.05
2022-09-28T04:59:26.170Z,4.82
2022-09-28T05:01:54.299Z,4.57
2022-09-28T05:04:31.150Z,4.65
2022-09-28T05:07:18.318Z,4.47
2022-09-28T05:09:45.526Z,4.05
2022-09-28T05:12:13.463Z,4.32
2022-09-28T05:14:41.006Z,3.72
2022-09-28T05:17:09.550Z,4.15
2022-09-28T05:19:56.699Z,3.88
2022-09-28T05:22:24.049Z,6.38
2022-09-28T05:24:51.901Z,5.68
2022-09-28T05:27:19.205Z,4.97
2022-09-28T05:29:54.905Z,5.30
2022-09-28T05:32:42.985Z,4.28
2022-09-28T05:35:18.531Z,4.60
2022-09-28T05:37:47.915Z,4.15
2022-09-28T05:40:16.202Z,4.60
2022-09-28T05:42:43.533Z,4.80
2022-09-28T05:45:11.020Z,4.60
2022-09-28T05:47:42.955Z,5.20
2022-09-28T05:50:12.127Z,4.13
2022-09-28T05:52:40.518Z,3.97
2022-09-28T05:55:09.192Z,4.10
2022-09-28T05:57:36.349Z,3.70
2022-09-28T06:00:09.412Z,4.57
2022-09-28T06:02:40.450Z,4.15
2022-09-28T06:05:11.679Z,3.80
2022-09-28T06:07:39.367Z,3.45
2022-09-28T06:10:09.315Z,3.75
2022-09-28T06:12:47.546Z,4.05
2022-09-28T06:15:22.692Z,3.92
2022-09-28T06:18:01.422Z,3.97
2022-09-28T06:20:45.234Z,4.10
2022-09-28T06:23:19.631Z,4.47
2022-09-28T06:25:48.069Z,4.15
2022-09-28T06:28:17.980Z,4.00
2022-09-28T06:30:46.008Z,4.60
2022-09-28T06:33:16.733Z,4.70
2022-09-28T06:35:44.224Z,4.72
2022-09-28T06:38:12.004Z,4.60
2022-09-28T06:40:39.730Z,4.60
2022-09-28T06:43:11.042Z,4.45
2022-09-28T06:45:58.216Z,4.47
2022-09-28T06:48:45.398Z,4.50
2022-09-28T06:51:17.423Z,5.05
2022-09-28T06:53:58.950Z,5.85
2022-09-28T06:56:41.665Z,5.82
2022-09-28T06:59:11.071Z,5.72
2022-09-28T07:01:38.851Z,5.57
2022-09-28T07:04:09.828Z,5.20
2022-09-28T07:06:57.073Z,5.28
2022-09-28T07:09:49.324Z,4.45
2022-09-28T07:12:25.575Z,4.53
2022-09-28T07:14:58.389Z,4.18
2022-09-28T07:17:29.143Z,4.30
2022-09-28T07:20:09.610Z,3.80
2022-09-28T07:22:43.855Z,4.18
2022-09-28T07:25:17.527Z,4.22
2022-09-28T07:28:05.373Z,4.38
2022-09-28T07:30:52.766Z,4.30
2022-09-28T07:33:40.168Z,4.38
2022-09-28T07:36:21.014Z,4.97
2022-09-28T07:38:48.696Z,5.07
2022-09-28T07:41:21.971Z,4.43
2022-09-28T07:43:57.069Z,4.03
2022-09-28T07:46:30.498Z,4.13
2022-09-28T07:49:08.471Z,4.00
2022-09-28T07:51:58.795Z,4.25
2022-09-28T07:54:27.655Z,4.03
2022-09-28T07:56:54.712Z,3.97
2022-09-28T07:59:41.786Z,4.35
2022-09-28T08:02:29.084Z,3.92
2022-09-28T08:04:56.639Z,3.80
2022-09-28T08:07:25.761Z,3.90
2022-09-28T08:10:02.710Z,3.67
2022-09-28T08:12:30.474Z,3.05
2022-09-28T08:15:17.548Z,3.80
2022-09-28T08:17:53.434Z,4.15
2022-09-28T08:20:42.317Z,3.92
2022-09-28T08:23:11.687Z,4.15
2022-09-28T08:25:41.056Z,4.25
2022-09-28T08:28:10.013Z,4.03
2022-09-28T08:30:46.406Z,4.18
2022-09-28T08:33:34.719Z,4.13
2022-09-28T08:36:27.930Z,4.20
2022-09-28T08:39:18.336Z,3.90
2022-09-28T08:42:22.065Z,4.15
2022-09-28T08:44:57.951Z,4.00
2022-09-28T08:48:16.801Z,3.53
2022-09-28T08:51:16.118Z,3.72
2022-09-28T08:54:22.560Z,4.07
2022-09-28T08:57:00.410Z,4.38
2022-09-28T08:59:43.872Z,4.47
2022-09-28T09:02:24.172Z,4.38
2022-09-28T09:05:17.194Z,4.13
2022-09-28T09:08:29.672Z,4.13
2022-09-28T09:11:28.648Z,4.53
2022-09-28T09:14:33.086Z,3.60
2022-09-28T09:17:20.270Z,4.20
2022-09-28T09:19:53.146Z,4.20
2022-09-28T09:22:46.627Z,4.00
2022-09-28T09:25:22.683Z,3.75
2022-09-28T09:28:32.837Z,2.35
2022-09-28T09:31:40.007Z,0.88
2022-09-28T09:34:27.146Z,0.80
2022-09-28T09:37:41.527Z,0.60
2022-09-28T09:40:56.972Z,0.50
2022-09-28T09:43:59.980Z,0.50
2022-09-28T09:46:56.889Z,0.70
2022-09-28T09:49:51.463Z,0.57
2022-09-28T09:52:22.674Z,0.40
2022-09-28T09:54:55.310Z,0.40
2022-09-28T09:57:58.036Z,0.40
2022-09-28T10:00:35.762Z,0.45
2022-09-28T10:03:25.264Z,0.40
2022-09-28T10:06:01.948Z,0.50
2022-09-28T10:08:31.356Z,0.35
2022-09-28T10:11:27.716Z,0.47
2022-09-28T10:13:57.810Z,0.40
2022-09-28T10:16:38.409Z,0.43
2022-09-28T10:19:13.487Z,0.40
2022-09-28T10:22:03.984Z,0.45
2022-09-28T10:24:34.563Z,0.50
2022-09-28T10:27:11.676Z,0.50
2022-09-28T10:30:04.761Z,0.40
2022-09-28T10:32:49.786Z,0.60
2022-09-28T10:35:25.522Z,0.60
2022-09-28T10:38:06.248Z,0.40
2022-09-28T10:40:51.887Z,0.40
2022-09-28T10:43:34.689Z,0.40
2022-09-28T10:46:10.385Z,0.57
2022-09-28T10:48:57.826Z,0.52
2022-09-28T10:51:50.405Z,0.55
2022-09-28T10:54:26.182Z,0.40
2022-09-28T10:56:56.147Z,0.57
2022-09-28T10:59:31.859Z,0.40
2022-09-28T11:02:26.167Z,0.30
2022-09-28T11:05:00.358Z,0.40
2022-09-28T11:10:02.302Z,0.80
2022-09-28T11:12:44.680Z,0.40
2022-09-28T11:15:19.587Z,0.80
2022-09-28T11:17:48.540Z,0.80
2022-09-28T11:20:28.226Z,0.70
2022-09-28T11:23:00.207Z,0.60
2022-09-28T11:25:33.018Z,0.70
2022-09-28T11:28:04.738Z,0.63
2022-09-28T11:30:44.525Z,0.80
2022-09-28T11:33:42.862Z,0.90
2022-09-28T11:36:13.896Z,0.95
2022-09-28T11:39:22.437Z,1.00
2022-09-28T11:41:56.242Z,0.95
2022-09-28T11:44:33.252Z,1.20
2022-09-28T11:47:08.899Z,1.10
2022-09-28T11:49:40.164Z,0.90
2022-09-28T11:52:19.347Z,1.00
2022-09-28T11:55:15.156Z,1.10
2022-09-28T11:57:46.610Z,1.13
2022-09-28T12:00:21.040Z,1.10
2022-09-28T12:02:55.995Z,1.23
2022-09-28T12:05:32.094Z,1.10
2022-09-28T12:08:05.211Z,1.33
2022-09-28T12:11:00.091Z,1.10
2022-09-28T12:13:49.570Z,1.08
2022-09-28T12:19:15.648Z,1.33
2022-09-28T12:22:05.350Z,1.15
2022-09-28T12:24:51.514Z,1.30
2022-09-28T12:27:23.695Z,1.08
2022-09-28T12:30:14.190Z,1.10
2022-09-28T12:32:42.463Z,1.40
2022-09-28T12:35:20.469Z,1.02
2022-09-28T12:37:58.769Z,1.17
2022-09-28T12:40:56.771Z,1.13
2022-09-28T12:43:33.509Z,0.77
2022-09-28T12:46:12.788Z,1.00
2022-09-28T12:51:57.861Z,1.17
2022-09-28T12:54:43.240Z,1.00
2022-09-28T12:57:37.872Z,1.20
2022-09-28T13:00:07.062Z,1.40
2022-09-28T13:03:14.007Z,1.50
2022-09-28T13:06:05.933Z,1.35
2022-09-28T13:08:55.396Z,1.25
2022-09-28T13:11:22.558Z,1.33
2022-09-28T13:13:53.425Z,1.10
2022-09-28T13:16:41.703Z,1.35
2022-09-28T13:19:20.797Z,1.40
2022-09-28T13:21:49.036Z,1.10
2022-09-28T13:24:34.117Z,1.25
2022-09-28T13:27:10.409Z,1.42
2022-09-28T13:32:13.067Z,1.10
2022-09-28T13:34:40.326Z,1.50
2022-09-28T13:37:17.055Z,1.30
2022-09-28T13:39:45.444Z,1.05
2022-09-28T13:42:24.933Z,1.30
2022-09-28T13:45:17.587Z,1.33
2022-09-28T13:47:55.668Z,1.15
2022-09-28T13:50:39.156Z,1.27
2022-09-28T13:53:24.233Z,1.27
2022-09-28T13:58:26.947Z,1.55
2022-09-28T14:01:00.968Z,1.63
2022-09-28T14:03:42.914Z,1.38
2022-09-28T14:06:22.794Z,1.60
2022-09-28T14:09:09.326Z,1.70
2022-09-28T14:11:37.411Z,1.73
2022-09-28T14:14:11.930Z,2.03
2022-09-28T14:16:40.870Z,1.50
2022-09-28T14:19:13.394Z,1.80
2022-09-28T14:22:20.348Z,1.77
2022-09-28T14:25:12.494Z,2.20
2022-09-28T14:27:46.271Z,2.05
2022-09-28T14:30:13.409Z,2.00
2022-09-28T14:32:43.227Z,1.98
2022-09-28T14:35:32.547Z,2.40
2022-09-28T14:38:26.889Z,2.60
2022-09-28T14:41:18.198Z,2.80
2022-09-28T14:43:45.549Z,2.45
2022-09-28T14:46:14.655Z,2.33
2022-09-28T14:48:51.869Z,2.60
2022-09-28T14:51:39.255Z,2.70
2022-09-28T14:54:17.841Z,2.90
2022-09-28T14:56:46.310Z,2.45
2022-09-28T14:59:17.669Z,2.55
2022-09-28T15:01:51.826Z,2.67
2022-09-28T15:04:20.314Z,2.90
2022-09-28T15:06:50.103Z,2.40
2022-09-28T15:09:35.922Z,2.67
2022-09-28T15:12:13.994Z,2.63
2022-09-28T15:14:49.940Z,3.05
2022-09-28T15:17:21.634Z,2.78
2022-09-28T15:20:04.107Z,3.03
2022-09-28T15:22:33.208Z,2.50
2022-09-28T15:25:02.908Z,3.15
2022-09-28T15:27:38.693Z,2.50
2022-09-28T15:30:24.218Z,2.67
2022-09-28T15:32:54.842Z,2.40
2022-09-28T15:35:26.333Z,2.95
2022-09-28T15:37:55.320Z,2.78
2022-09-28T15:40:32.307Z,2.55
2022-09-28T15:43:00.167Z,2.95
2022-09-28T15:45:32.093Z,2.50
2022-09-28T15:48:20.191Z,3.42
2022-09-28T15:50:59.878Z,3.00
2022-09-28T15:53:27.915Z,2.78
2022-09-28T15:56:03.718Z,3.70
2022-09-28T15:58:30.985Z,3.22
2022-09-28T16:01:37.992Z,3.63
2022-09-28T16:04:48.851Z,3.50
2022-09-28T16:07:38.587Z,3.60
2022-09-28T16:10:13.220Z,3.80
2022-09-28T16:15:23.322Z,3.25
2022-09-28T16:17:56.627Z,3.38
2022-09-28T16:20:29.609Z,3.42
2022-09-28T16:23:03.749Z,3.10
2022-09-28T16:25:31.636Z,3.47
2022-09-28T16:27:59.148Z,3.42
2022-09-28T16:30:29.852Z,3.08
2022-09-28T16:33:01.552Z,3.75
2022-09-28T16:35:37.841Z,3.45
2022-09-28T16:38:22.181Z,3.40
2022-09-28T16:43:30.479Z,2.90
2022-09-28T16:46:01.572Z,3.03
2022-09-28T16:48:31.485Z,3.25
2022-09-28T16:51:04.656Z,3.83
2022-09-28T16:53:54.110Z,3.15
2022-09-28T16:56:23.073Z,4.03
2022-09-28T16:58:50.867Z,4.20
2022-09-28T17:01:19.665Z,4.22
2022-09-28T17:03:50.540Z,4.90
2022-09-28T17:06:38.939Z,4.95
2022-09-28T17:09:07.414Z,4.45
2022-09-28T17:11:34.481Z,4.38
2022-09-28T17:14:03.962Z,4.55
2022-09-28T17:19:24.691Z,4.45
2022-09-28T17:21:53.187Z,4.97
2022-09-28T17:24:21.725Z,4.55
2022-09-28T17:26:52.277Z,4.10
2022-09-28T17:29:19.865Z,4.18
2022-09-28T17:31:48.142Z,4.45
2022-09-28T17:34:17.421Z,4.72
2022-09-28T17:36:45.308Z,3.97
2022-09-28T17:39:14.869Z,4.30
2022-09-28T17:41:42.065Z,4.40
2022-09-28T17:44:09.260Z,4.63
2022-09-28T17:46:39.663Z,4.78
2022-09-28T17:49:10.389Z,4.28
2022-09-28T17:51:38.083Z,3.97
2022-09-28T17:54:06.949Z,4.28
2022-09-28T17:56:35.347Z,4.05
2022-09-28T17:59:06.943Z,4.40
2022-09-28T18:01:37.906Z,4.60
2022-09-28T18:04:08.208Z,4.10
2022-09-28T18:06:37.296Z,4.25
2022-09-28T18:09:05.454Z,4.32
2022-09-28T18:11:33.869Z,4.30
2022-09-28T18:14:01.095Z,4.00
2022-09-28T18:16:29.183Z,5.28
2022-09-28T18:18:58.491Z,4.75
2022-09-28T18:21:25.871Z,4.72
2022-09-28T18:23:53.493Z,4.10
2022-09-28T18:26:21.296Z,4.15
2022-09-28T18:28:50.306Z,4.25
2022-09-28T18:31:19.689Z,3.97
2022-09-28T18:36:36.680Z,4.50
2022-09-28T18:39:04.616Z,4.65
2022-09-28T18:41:37.158Z,4.15
2022-09-28T18:44:12.864Z,4.43
2022-09-28T18:46:48.475Z,4.75
2022-09-28T18:49:21.032Z,4.50
2022-09-28T18:51:51.427Z,4.93
2022-09-28T18:54:24.007Z,4.80
2022-09-28T18:57:05.602Z,5.85
2022-09-28T18:59:38.956Z,4.90
2022-09-28T19:02:08.849Z,5.65
2022-09-28T19:04:37.720Z,4.95
2022-09-28T19:07:06.271Z,5.45
2022-09-28T19:09:36.085Z,4.88
2022-09-28T19:12:04.469Z,5.82
2022-09-28T19:14:34.819Z,4.57
2022-09-28T19:17:04.481Z,4.97
2022-09-28T19:19:33.159Z,5.63
2022-09-28T19:22:00.817Z,5.57
2022-09-28T19:24:28.041Z,5.00
2022-09-28T19:26:56.639Z,5.43
2022-09-28T19:29:24.191Z,5.28
2022-09-28T19:31:52.042Z,4.90
2022-09-28T19:34:25.516Z,5.20
2022-09-28T19:36:53.876Z,5.15
2022-09-28T19:39:21.524Z,4.72
2022-09-28T19:41:51.399Z,5.15
2022-09-28T19:44:28.495Z,5.15
2022-09-28T19:47:08.136Z,4.60
2022-09-28T19:49:39.512Z,5.07
2022-09-28T19:52:15.845Z,5.28
2022-09-28T19:54:45.711Z,4.82
2022-09-28T19:57:16.062Z,5.57
2022-09-28T19:59:43.551Z,5.53
2022-09-28T20:02:11.988Z,4.38
2022-09-28T20:04:39.300Z,4.40
2022-09-28T20:07:06.572Z,4.70
2022-09-28T20:09:33.877Z,5.15
2022-09-28T20:12:01.336Z,4.90
2022-09-28T20:14:34.079Z,4.82
2022-09-28T20:17:05.005Z,4.75
2022-09-28T20:19:32.781Z,4.43
2022-09-28T20:22:02.851Z,4.78
2022-09-28T20:24:31.876Z,4.70
2022-09-28T20:26:59.506Z,5.25
2022-09-28T20:29:26.828Z,6.28
2022-09-28T20:31:54.699Z,6.22
2022-09-28T20:34:21.953Z,5.85
2022-09-28T20:36:49.205Z,5.85
2022-09-28T20:39:16.430Z,5.40
2022-09-28T20:41:43.764Z,6.25
2022-09-28T20:44:10.878Z,6.00
2022-09-28T20:46:41.929Z,6.05
2022-09-28T20:49:10.390Z,6.63
2022-09-28T20:51:41.358Z,6.15
2022-09-28T20:54:08.859Z,6.50
2022-09-28T20:56:39.415Z,6.10
2022-09-28T20:59:09.803Z,6.95
2022-09-28T21:01:37.704Z,6.72
2022-09-28T21:04:06.793Z,7.07
2022-09-28T21:06:37.315Z,7.20
2022-09-28T21:09:06.032Z,6.25
2022-09-28T21:11:35.870Z,7.18
2022-09-28T21:14:06.494Z,7.35
2022-09-28T21:16:35.480Z,7.15
2022-09-28T21:19:03.513Z,6.97
2022-09-28T21:21:31.362Z,8.13
2022-09-28T21:23:58.975Z,7.28
2022-09-28T21:26:28.067Z,7.30
2022-09-28T21:28:59.253Z,7.72
2022-09-28T21:31:29.987Z,7.40
2022-09-28T21:33:58.526Z,7.72
2022-09-28T21:36:26.245Z,7.63
2022-09-28T21:38:56.202Z,7.50
2022-09-28T21:41:26.859Z,7.93
2022-09-28T21:43:54.067Z,8.32
2022-09-28T21:46:21.259Z,7.95
2022-09-28T21:48:53.590Z,7.63
2022-09-28T21:51:21.657Z,7.72
2022-09-28T21:53:49.506Z,7.53
2022-09-28T21:56:16.880Z,7.38
2022-09-28T21:58:44.046Z,8.57
2022-09-28T22:01:15.640Z,8.10
2022-09-28T22:03:44.619Z,7.95
2022-09-28T22:06:12.503Z,8.68
2022-09-28T22:08:40.069Z,9.32
2022-09-28T22:11:11.875Z,8.70
2022-09-28T22:13:44.765Z,9.52
2022-09-28T22:16:13.644Z,8.88
2022-09-28T22:18:41.278Z,8.43
2022-09-28T22:21:12.486Z,7.25
2022-09-28T22:23:40.499Z,7.97
2022-09-28T22:26:19.123Z,7.90
2022-09-28T22:28:49.627Z,8.90
2022-09-28T22:31:19.475Z,8.98
2022-09-28T22:33:46.778Z,8.20
2022-09-28T22:36:16.692Z,6.70
2022-09-28T22:38:45.027Z,7.60
2022-09-28T22:41:14.652Z,7.50
2022-09-28T22:43:43.701Z,8.77
2022-09-28T22:46:14.488Z,8.82
2022-09-28T22:48:42.717Z,9.00
2022-09-28T22:51:09.944Z,7.97
2022-09-28T22:53:37.126Z,7.40
2022-09-28T22:56:05.698Z,8.40
2022-09-28T22:58:34.756Z,7.85
2022-09-28T23:01:10.242Z,8.20
2022-09-28T23:03:40.245Z,8.00
2022-09-28T23:06:08.298Z,7.25
2022-09-28T23:08:35.842Z,7.63
2022-09-28T23:11:03.745Z,7.10
2022-09-28T23:13:31.320Z,7.13
2022-09-28T23:16:03.371Z,6.80
2022-09-28T23:18:33.110Z,6.65
2022-09-28T23:21:03.134Z,6.35
2022-09-28T23:23:31.003Z,6.07
2022-09-28T23:25:58.787Z,6.72
2022-09-28T23:28:26.950Z,5.75
2022-09-28T23:30:54.403Z,6.55
2022-09-28T23:33:22.465Z,6.32
2022-09-28T23:35:49.914Z,6.05
2022-09-28T23:38:18.466Z,6.40
2022-09-28T23:40:46.595Z,6.20
2022-09-28T23:43:14.961Z,6.28
2022-09-28T23:45:44.122Z,7.18
2022-09-28T23:48:12.976Z,7.93
2022-09-28T23:50:40.046Z,7.43
2022-09-28T23:53:07.420Z,7.20
2022-09-28T23:55:34.641Z,8.43
2022-09-28T23:58:01.870Z,8.32
